Time;durP1;ratioP1;P1;durP2;ratioP2;P2;SDS_P1;SDS_P2;PMS_P1;PMS_P2;Temp;Humidity;BMP_temperature;BMP_pressure;BME280_temperature;BME280_humidity;BME280_pressure;Samples;Min_cycle;Max_cycle;Signal;HPM_P1;HPM_P2
2024/01/19 00:02:17;;;;;;;;;;;;;;;-0.98;100.00;97908.98;109478;1252;59105;-74
2024/01/19 00:04:43;;;;;;;55.20;33.30;;;;;;;-0.98;100.00;97912.14;109506;1252;59479;-74
2024/01/19 00:07:12;;;;;;;54.80;35.70;;;;;;;-0.99;100.00;97911.67;109467;1252;61045;-73
2024/01/19 00:09:38;;;;;;;56.00;36.50;;;;;;;-0.99;100.00;97912.88;109477;1252;63917;-74
2024/01/19 00:12:05;;;;;;;53.20;35.80;;;;;;;-1.00;100.00;97927.37;109462;1251;58977;-72
2024/01/19 00:14:32;;;;;;;51.00;32.30;;;;;;;-1.01;100.00;97933.70;109464;1252;59097;-74
2024/01/19 00:16:58;;;;;;;52.80;33.80;;;;;;;-1.03;100.00;97940.39;109446;1251;67001;-75
2024/01/19 00:19:25;;;;;;;49.90;32.10;;;;;;;-1.04;100.00;97946.34;109508;1252;59061;-74
2024/01/19 00:21:51;;;;;;;52.40;33.40;;;;;;;-1.05;100.00;97948.31;109218;1253;63991;-74
2024/01/19 00:24:18;;;;;;;49.10;30.80;;;;;;;-1.07;100.00;97953.42;109452;1252;59013;-74
2024/01/19 00:26:47;;;;;;;48.70;31.70;;;;;;;-1.07;100.00;97958.33;109495;1252;59161;-74
2024/01/19 00:29:13;;;;;;;48.40;31.40;;;;;;;-1.10;100.00;97961.21;109449;1252;66948;-74
2024/01/19 00:31:45;;;;;;;47.30;30.90;;;;;;;-1.11;100.00;97965.60;109520;1252;61216;-74
2024/01/19 00:34:12;;;;;;;43.50;30.00;;;;;;;-1.11;100.00;97976.07;109462;1252;64061;-74
2024/01/19 00:36:40;;;;;;;44.70;28.60;;;;;;;-1.12;100.00;97979.76;108716;1252;1002974;-75
2024/01/19 00:39:07;;;;;;;43.50;29.00;;;;;;;-1.12;100.00;97982.73;109476;1252;59007;-73
2024/01/19 00:41:33;;;;;;;49.10;33.00;;;;;;;-1.13;100.00;97981.88;109492;1252;66474;-73
2024/01/19 00:44:00;;;;;;;45.30;30.10;;;;;;;-1.12;100.00;97988.14;109443;1252;61040;-73
2024/01/19 00:46:28;;;;;;;46.80;30.70;;;;;;;-1.12;100.00;97995.42;109536;1252;65311;-74
2024/01/19 00:48:55;;;;;;;50.80;31.90;;;;;;;-1.12;100.00;97995.61;108670;1252;1003374;-74
2024/01/19 00:51:22;;;;;;;51.40;32.50;;;;;;;-1.13;100.00;97991.63;109479;1252;58905;-74
2024/01/19 00:53:48;;;;;;;47.70;31.40;;;;;;;-1.12;100.00;97995.63;109485;1252;66964;-73
2024/01/19 00:56:17;;;;;;;49.90;33.40;;;;;;;-1.12;100.00;97997.36;109497;1252;61154;-74
2024/01/19 00:58:44;;;;;;;51.60;35.00;;;;;;;-1.13;100.00;97995.48;109449;1252;64013;-74
2024/01/19 01:01:14;;;;;;;53.60;35.10;;;;;;;-1.13;100.00;97993.74;109150;1252;59090;-74
2024/01/19 01:03:41;;;;;;;48.40;32.90;;;;;;;-1.13;100.00;97993.40;109527;1251;59155;-74
2024/01/19 01:06:07;;;;;;;47.80;32.10;;;;;;;-1.13;100.00;97999.31;109519;1252;67174;-74
2024/01/19 01:08:35;;;;;;;53.00;35.10;;;;;;;-1.15;100.00;98001.98;109517;1251;60096;-74
2024/01/19 01:11:03;;;;;;;49.70;32.20;;;;;;;-1.16;100.00;98009.17;109484;1252;64936;-75
2024/01/19 01:13:30;;;;;;;43.70;30.80;;;;;;;-1.16;100.00;98021.39;109415;1252;58954;-73
2024/01/19 01:15:57;;;;;;;46.50;31.60;;;;;;;-1.17;100.00;98027.14;109500;1252;59033;-74
2024/01/19 01:18:23;;;;;;;47.90;32.00;;;;;;;-1.16;100.00;98033.76;109303;1253;67058;-74
2024/01/19 01:20:50;;;;;;;41.80;30.60;;;;;;;-1.16;100.00;98036.35;109480;1252;59774;-74
2024/01/19 01:23:18;;;;;;;45.50;28.70;;;;;;;-1.16;100.00;98042.11;109456;1252;64007;-74
2024/01/19 01:25:44;;;;;;;46.10;29.80;;;;;;;-1.16;100.00;98047.52;109459;1251;58969;-74
2024/01/19 01:28:11;;;;;;;50.90;31.90;;;;;;;-1.15;100.00;98055.16;109457;1252;59019;-74
2024/01/19 01:30:40;;;;;;;48.10;30.80;;;;;;;-1.15;100.00;98057.43;108713;1252;1002371;-74
2024/01/19 01:33:07;;;;;;;45.90;30.60;;;;;;;-1.16;100.00;98062.69;109469;1252;60053;-73
2024/01/19 01:35:35;;;;;;;43.90;29.60;;;;;;;-1.16;100.00;98057.11;108704;1252;1002924;-73
2024/01/19 01:38:03;;;;;;;44.70;28.40;;;;;;;-1.16;100.00;98060.61;109486;1252;59003;-73
2024/01/19 01:40:30;;;;;;;43.90;28.50;;;;;;;-1.16;100.00;98059.02;109479;1251;59027;-73
2024/01/19 01:43:01;;;;;;;39.00;26.80;;;;;;;-1.15;100.00;98062.30;109489;1252;65962;-73
2024/01/19 01:45:28;;;;;;;42.60;27.70;;;;;;;-1.14;100.00;98067.48;109428;1252;60982;-73
2024/01/19 01:47:55;;;;;;;49.60;29.40;;;;;;;-1.14;100.00;98068.52;109348;1253;64076;-73
2024/01/19 01:50:22;;;;;;;44.20;27.10;;;;;;;-1.14;100.00;98067.30;109486;1252;59030;-73
2024/01/19 01:52:51;;;;;;;41.40;28.70;;;;;;;-1.13;100.00;98067.64;109498;1252;59069;-73
2024/01/19 01:55:18;;;;;;;49.60;30.00;;;;;;;-1.12;100.00;98073.33;109489;1252;67427;-73
2024/01/19 01:57:46;;;;;;;43.30;27.10;;;;;;;-1.11;100.00;98073.31;109493;1252;60825;-72
2024/01/19 02:00:14;;;;;;;48.70;30.20;;;;;;;-1.10;100.00;98076.59;109476;1253;64998;-73
2024/01/19 02:02:41;;;;;;;44.90;27.90;;;;;;;-1.08;100.00;98084.37;109495;1252;59236;-73
2024/01/19 02:05:07;;;;;;;40.40;27.10;;;;;;;-1.09;100.00;98093.98;109457;1251;58897;-73
2024/01/19 02:07:34;;;;;;;41.80;26.60;;;;;;;-1.09;100.00;98097.13;109536;1252;64848;-73
2024/01/19 02:10:02;;;;;;;42.70;27.00;;;;;;;-1.09;100.00;98095.21;109508;1252;61088;-73
2024/01/19 02:12:29;;;;;;;40.80;25.90;;;;;;;-1.10;100.00;98094.55;109483;1252;64132;-73
2024/01/19 02:14:56;;;;;;;38.30;26.10;;;;;;;-1.11;100.00;98096.66;109256;1252;59000;-73
2024/01/19 02:17:25;;;;;;;42.90;28.10;;;;;;;-1.11;100.00;98095.63;109523;1252;58912;-73
2024/01/19 02:19:53;;;;;;;44.20;26.90;;;;;;;-1.11;100.00;98093.38;109443;1252;66034;-74
2024/01/19 02:22:20;;;;;;;41.50;26.80;;;;;;;-1.11;100.00;98098.94;109480;1252;60084;-74
2024/01/19 02:24:46;;;;;;;41.30;25.40;;;;;;;-1.10;100.00;98104.65;109484;1253;65204;-74
2024/01/19 02:27:14;;;;;;;36.60;25.30;;;;;;;-1.10;100.00;98111.99;109491;1252;58993;-73
2024/01/19 02:29:50;;;;;;;38.20;24.00;;;;;;;-1.12;100.00;98119.55;109463;1253;58960;-73
2024/01/19 02:32:17;;;;;;;46.70;27.90;;;;;;;-1.16;100.00;98124.05;109528;1252;66086;-73
2024/01/19 02:34:46;;;;;;;45.70;26.70;;;;;;;-1.18;100.00;98128.13;109500;1253;60762;-73
2024/01/19 02:37:13;;;;;;;42.70;24.70;;;;;;;-1.21;100.00;98130.46;109459;1252;64008;-74
2024/01/19 02:39:40;;;;;;;40.00;23.50;;;;;;;-1.25;100.00;98135.30;109489;1253;59172;-73
2024/01/19 02:42:08;;;;;;;37.50;23.60;;;;;;;-1.27;100.00;98140.26;109485;1252;58810;-74
2024/01/19 02:44:34;;;;;;;38.70;24.50;;;;;;;-1.29;100.00;98146.42;108708;1252;1003020;-74
2024/01/19 02:47:01;;;;;;;37.90;23.30;;;;;;;-1.31;100.00;98152.42;109499;1252;61148;-74
2024/01/19 02:49:28;;;;;;;36.30;23.00;;;;;;;-1.33;100.00;98155.61;109399;1253;65099;-74
2024/01/19 02:51:55;;;;;;;36.10;21.40;;;;;;;-1.35;100.00;98155.16;109489;1252;59055;-75
2024/01/19 02:54:21;;;;;;;41.00;23.90;;;;;;;-1.36;100.00;98153.80;109467;1252;59027;-73
2024/01/19 02:56:48;;;;;;;36.60;23.40;;;;;;;-1.39;100.00;98156.49;109512;1252;67322;-73
2024/01/19 02:59:15;;;;;;;33.50;23.00;;;;;;;-1.42;100.00;98162.36;109499;1253;60162;-75
2024/01/19 03:01:41;;;;;;;28.30;19.30;;;;;;;-1.44;100.00;98170.26;108492;1253;1002406;-74
2024/01/19 03:04:08;;;;;;;34.50;21.00;;;;;;;-1.46;100.00;98183.40;108723;1253;1002296;-74
2024/01/19 03:06:34;;;;;;;33.40;19.60;;;;;;;-1.48;100.00;98188.18;109460;1253;58968;-74
2024/01/19 03:09:01;;;;;;;29.70;19.10;;;;;;;-1.51;100.00;98193.31;109507;1253;66495;-72
2024/01/19 03:11:27;;;;;;;27.60;17.40;;;;;;;-1.55;100.00;98195.00;109478;1253;59771;-73
2024/01/19 03:13:54;;;;;;;25.30;15.70;;;;;;;-1.60;100.00;98200.88;109461;1252;65078;-74
2024/01/19 03:16:21;;;;;;;24.80;14.50;;;;;;;-1.63;100.00;98204.13;109462;1252;59144;-73
2024/01/19 03:18:48;;;;;;;22.20;13.30;;;;;;;-1.67;100.00;98205.29;109510;1252;58938;-73
2024/01/19 03:21:15;;;;;;;23.50;14.20;;;;;;;-1.71;100.00;98208.38;109513;1253;67058;-74
2024/01/19 03:23:42;;;;;;;20.40;13.20;;;;;;;-1.73;100.00;98213.66;109407;1252;60032;-74
2024/01/19 03:26:08;;;;;;;20.40;13.10;;;;;;;-1.75;100.00;98219.29;109456;1253;63967;-74
2024/01/19 03:28:35;;;;;;;21.90;13.90;;;;;;;-1.78;100.00;98226.15;109480;1252;59029;-74
2024/01/19 03:31:01;;;;;;;20.70;14.20;;;;;;;-1.80;100.00;98225.16;109453;1253;60379;-74
2024/01/19 03:33:28;;;;;;;18.70;13.10;;;;;;;-1.81;100.00;98232.00;109512;1252;66821;-72
2024/01/19 03:35:55;;;;;;;20.30;13.40;;;;;;;-1.82;100.00;98242.84;109475;1252;61208;-73
2024/01/19 03:38:21;;;;;;;22.00;13.80;;;;;;;-1.83;100.00;98246.17;109529;1253;63969;-73
2024/01/19 03:40:48;;;;;;;17.10;12.40;;;;;;;-1.84;100.00;98248.48;109466;1253;59029;-73
2024/01/19 03:43:15;;;;;;;21.90;14.10;;;;;;;-1.84;100.00;98251.41;109493;1252;59014;-74
2024/01/19 03:45:41;;;;;;;21.50;13.40;;;;;;;-1.85;100.00;98252.84;109184;1252;67036;-73
2024/01/19 03:48:09;;;;;;;21.70;15.40;;;;;;;-1.85;100.00;98256.33;109515;1253;61016;-74
2024/01/19 03:50:36;;;;;;;21.70;15.40;;;;;;;-1.86;100.00;98260.19;109412;1252;63994;-74
2024/01/19 03:53:03;;;;;;;29.50;18.20;;;;;;;-1.87;100.00;98266.30;109153;1252;58991;-73
2024/01/19 03:55:29;;;;;;;24.80;17.10;;;;;;;-1.87;100.00;98276.92;109490;1253;58910;-74
2024/01/19 03:57:56;;;;;;;23.60;15.80;;;;;;;-1.87;100.00;98278.12;109470;1253;67039;-74
2024/01/19 04:00:22;;;;;;;21.00;14.60;;;;;;;-1.85;100.00;98282.08;109449;1252;60101;-74
2024/01/19 04:02:49;;;;;;;19.50;13.80;;;;;;;-1.85;100.00;98278.61;109462;1252;73989;-73
2024/01/19 04:05:16;;;;;;;24.30;14.40;;;;;;;-1.86;100.00;98280.01;109496;1253;59285;-73
2024/01/19 04:07:42;;;;;;;25.00;15.60;;;;;;;-1.86;100.00;98274.79;109473;1253;59099;-73
2024/01/19 04:10:09;;;;;;;22.20;15.30;;;;;;;-1.85;100.00;98275.46;109512;1251;66997;-74
2024/01/19 04:12:35;;;;;;;21.60;15.40;;;;;;;-1.84;100.00;98275.09;109510;1251;61012;-74
2024/01/19 04:15:03;;;;;;;23.60;16.40;;;;;;;-1.83;100.00;98272.46;109518;1252;65025;-74
2024/01/19 04:17:29;;;;;;;23.80;16.00;;;;;;;-1.82;100.00;98270.69;109413;1253;59094;-74
2024/01/19 04:19:57;;;;;;;24.50;16.80;;;;;;;-1.83;100.00;98271.39;109513;1252;58913;-73
2024/01/19 04:22:25;;;;;;;21.70;15.10;;;;;;;-1.83;100.00;98273.67;107740;1253;1002419;-75
2024/01/19 04:24:52;;;;;;;21.40;14.70;;;;;;;-1.83;100.00;98287.96;109105;1256;60427;-74
2024/01/19 04:27:19;;;;;;;25.60;16.50;;;;;;;-1.85;100.00;98302.44;109182;1257;65211;-74
2024/01/19 04:29:45;;;;;;;25.50;17.10;;;;;;;-1.85;100.00;98307.86;109175;1255;59051;-74
2024/01/19 04:32:12;;;;;;;19.20;12.60;;;;;;;-1.87;100.00;98312.42;109176;1255;59079;-74
2024/01/19 04:34:38;;;;;;;16.10;11.60;;;;;;;-1.88;100.00;98316.64;109206;1256;66990;-74
2024/01/19 04:37:05;;;;;;;17.20;11.00;;;;;;;-1.89;100.00;98327.30;109210;1255;60220;-73
2024/01/19 04:39:32;;;;;;;16.60;10.50;;;;;;;-1.90;100.00;98324.70;109184;1255;63981;-74
2024/01/19 04:41:58;;;;;;;16.20;10.30;;;;;;;-1.92;100.00;98315.54;109206;1256;59103;-73
2024/01/19 04:44:25;;;;;;;17.80;11.40;;;;;;;-1.94;100.00;98318.55;109225;1256;59028;-73
2024/01/19 04:46:52;;;;;;;16.10;10.40;;;;;;;-1.95;100.00;98337.02;109214;1256;65968;-74
2024/01/19 04:49:18;;;;;;;17.00;10.90;;;;;;;-1.94;100.00;98356.51;109232;1254;59100;-74
2024/01/19 04:51:45;;;;;;;18.00;11.90;;;;;;;-1.93;100.00;98363.96;109215;1255;65115;-74
2024/01/19 04:54:11;;;;;;;17.50;10.90;;;;;;;-1.92;100.00;98367.05;109027;1254;59113;-74
2024/01/19 04:56:38;;;;;;;17.40;11.70;;;;;;;-1.91;100.00;98374.36;108659;1253;1002436;-74
2024/01/19 04:59:05;;;;;;;20.90;11.70;;;;;;;-1.91;100.00;98386.54;109532;1253;66002;-74
2024/01/19 05:01:32;;;;;;;17.40;11.70;;;;;;;-1.93;100.00;98394.94;109512;1253;59703;-74
2024/01/19 05:03:58;;;;;;;17.30;12.10;;;;;;;-1.93;100.00;98397.20;109463;1253;64948;-74
2024/01/19 05:06:25;;;;;;;17.50;12.20;;;;;;;-1.94;100.00;98395.30;109493;1252;59276;-74
2024/01/19 05:08:51;;;;;;;18.30;12.20;;;;;;;-1.95;100.00;98397.23;109470;1252;58944;-74
2024/01/19 05:11:18;;;;;;;17.60;11.40;;;;;;;-1.97;100.00;98405.83;109511;1252;66997;-74
2024/01/19 05:13:45;;;;;;;16.20;12.40;;;;;;;-1.99;100.00;98408.32;109502;1252;61023;-74
2024/01/19 05:16:11;;;;;;;18.30;12.40;;;;;;;-2.01;100.00;98414.63;109261;1253;65096;-74
2024/01/19 05:18:39;;;;;;;17.10;12.30;;;;;;;-2.02;100.00;98420.23;109489;1253;59142;-75
2024/01/19 05:21:06;;;;;;;19.00;12.70;;;;;;;-2.05;100.00;98425.69;109235;1253;59074;-74
2024/01/19 05:23:32;;;;;;;20.60;15.10;;;;;;;-2.06;100.00;98428.17;109480;1252;67423;-74
2024/01/19 05:26:01;;;;;;;19.30;13.80;;;;;;;-2.08;100.00;98431.17;109463;1252;61521;-73
2024/01/19 05:28:28;;;;;;;20.80;14.10;;;;;;;-2.10;100.00;98433.50;109488;1252;64032;-74
2024/01/19 05:30:54;;;;;;;22.70;14.60;;;;;;;-2.12;100.00;98439.79;109506;1253;58982;-74
2024/01/19 05:33:21;;;;;;;18.90;12.70;;;;;;;-2.12;100.00;98439.65;109486;1253;59201;-74
2024/01/19 05:35:47;;;;;;;13.70;11.00;;;;;;;-2.12;100.00;98437.39;109508;1253;67133;-74
2024/01/19 05:38:14;;;;;;;15.20;10.30;;;;;;;-2.13;100.00;98444.17;109210;1252;67938;-75
2024/01/19 05:40:40;;;;;;;16.40;10.90;;;;;;;-2.12;100.00;98452.00;109455;1252;64137;-74
2024/01/19 05:43:07;;;;;;;19.20;12.50;;;;;;;-2.13;100.00;98447.84;109481;1253;59030;-74
2024/01/19 05:45:34;;;;;;;18.60;12.70;;;;;;;-2.11;100.00;98446.93;109397;1253;59115;-75
2024/01/19 05:48:00;;;;;;;21.80;11.20;;;;;;;-2.11;100.00;98450.92;109477;1253;67064;-74
2024/01/19 05:50:27;;;;;;;17.20;13.10;;;;;;;-2.11;100.00;98461.00;109502;1252;59813;-75
2024/01/19 05:52:54;;;;;;;16.40;12.20;;;;;;;-2.11;100.00;98464.13;109474;1253;65045;-74
2024/01/19 05:55:20;;;;;;;16.20;12.00;;;;;;;-2.09;100.00;98471.42;109479;1252;59061;-74
2024/01/19 05:57:47;;;;;;;16.20;9.60;;;;;;;-2.08;100.00;98481.13;109481;1253;58886;-74
2024/01/19 06:00:13;;;;;;;13.70;11.10;;;;;;;-2.08;100.00;98485.13;109166;1252;66102;-75
2024/01/19 06:02:40;;;;;;;15.30;10.30;;;;;;;-2.09;100.00;98496.47;109278;1253;60403;-75
2024/01/19 06:05:07;;;;;;;18.10;11.80;;;;;;;-2.09;100.00;98505.00;108710;1253;1002791;-74
2024/01/19 06:07:34;;;;;;;16.20;10.80;;;;;;;-2.08;100.00;98507.77;109416;1252;59000;-74
2024/01/19 06:10:00;;;;;;;16.60;11.90;;;;;;;-2.08;100.00;98514.21;109473;1253;59295;-74
2024/01/19 06:12:27;;;;;;;14.40;10.40;;;;;;;-2.09;100.00;98515.28;109484;1252;67228;-75
2024/01/19 06:14:54;;;;;;;17.00;11.60;;;;;;;-2.11;100.00;98523.15;109524;1253;69882;-74
2024/01/19 06:17:20;;;;;;;17.00;10.80;;;;;;;-2.12;100.00;98531.87;109491;1252;65070;-75
2024/01/19 06:19:47;;;;;;;18.40;12.20;;;;;;;-2.13;100.00;98535.37;109477;1251;59001;-74
2024/01/19 06:22:14;;;;;;;16.80;11.70;;;;;;;-2.13;100.00;98532.41;109464;1253;58971;-74
2024/01/19 06:24:41;;;;;;;13.80;11.00;;;;;;;-2.14;100.00;98535.38;109422;1253;67065;-74
2024/01/19 06:27:07;;;;;;;11.80;9.80;;;;;;;-2.15;100.00;98535.41;109454;1253;61232;-74
2024/01/19 06:29:34;;;;;;;15.10;10.70;;;;;;;-2.16;100.00;98540.33;109489;1253;65062;-74
2024/01/19 06:32:01;;;;;;;14.70;9.90;;;;;;;-2.19;100.00;98543.36;109495;1253;59060;-74
2024/01/19 06:34:28;;;;;;;14.00;9.80;;;;;;;-2.21;100.00;98547.92;109509;1253;59320;-75
2024/01/19 06:36:55;;;;;;;12.10;8.90;;;;;;;-2.22;100.00;98551.59;109497;1253;67091;-75
2024/01/19 06:39:21;;;;;;;14.90;9.90;;;;;;;-2.22;100.00;98551.24;109466;1253;61167;-75
2024/01/19 06:41:48;;;;;;;15.10;11.30;;;;;;;-2.23;100.00;98551.96;109452;1253;65061;-75
2024/01/19 06:44:14;;;;;;;23.10;12.30;;;;;;;-2.23;100.00;98551.45;109474;1252;59264;-75
2024/01/19 06:46:45;;;;;;;16.20;11.00;;;;;;;-2.23;100.00;98552.47;109464;1252;59028;-75
2024/01/19 06:49:12;;;;;;;17.10;10.70;;;;;;;-2.21;100.00;98552.10;109401;1253;67001;-75
2024/01/19 06:51:39;;;;;;;22.50;12.70;;;;;;;-2.20;100.00;98546.51;109422;1253;60881;-74
2024/01/19 06:54:06;;;;;;;18.40;11.40;;;;;;;-2.19;100.00;98545.61;109260;1253;65331;-74
2024/01/19 06:56:32;;;;;;;20.10;12.60;;;;;;;-2.21;100.00;98543.20;109457;1252;59073;-74
2024/01/19 06:58:59;;;;;;;19.90;10.60;;;;;;;-2.22;100.00;98542.70;109307;1253;58985;-74
2024/01/19 07:01:27;;;;;;;25.20;12.90;;;;;;;-2.22;100.00;98544.10;109501;1252;66065;-75
2024/01/19 07:03:53;;;;;;;23.20;12.70;;;;;;;-2.21;100.00;98550.88;109453;1253;61312;-75
2024/01/19 07:06:20;;;;;;;19.30;11.50;;;;;;;-2.20;100.00;98554.16;109431;1253;65045;-75
2024/01/19 07:08:46;;;;;;;19.80;11.20;;;;;;;-2.18;100.00;98556.02;109220;1253;59957;-75
2024/01/19 07:11:13;;;;;;;16.60;11.40;;;;;;;-2.17;100.00;98554.77;108496;1252;1002795;-75
2024/01/19 07:13:41;;;;;;;15.60;10.60;;;;;;;-2.14;100.00;98558.20;108729;1252;1002403;-75
2024/01/19 07:16:08;;;;;;;16.40;10.50;;;;;;;-2.11;100.00;98564.39;109491;1253;61005;-75
2024/01/19 07:18:36;;;;;;;20.50;12.50;;;;;;;-2.10;100.00;98561.41;109454;1253;64148;-75
2024/01/19 07:21:02;;;;;;;18.90;12.70;;;;;;;-2.09;100.00;98552.69;109486;1253;58968;-74
2024/01/19 07:23:29;;;;;;;23.00;14.10;;;;;;;-2.08;100.00;98543.44;109486;1253;58865;-73
2024/01/19 07:25:56;;;;;;;20.60;12.70;;;;;;;-2.05;100.00;98543.03;109501;1253;67053;-75
2024/01/19 07:28:22;;;;;;;27.70;15.90;;;;;;;-2.03;100.00;98545.42;109474;1253;59978;-74
2024/01/19 07:30:49;;;;;;;40.10;18.80;;;;;;;-2.02;100.00;98548.70;109399;1253;64116;-75
2024/01/19 07:33:15;;;;;;;27.80;14.70;;;;;;;-2.01;100.00;98557.91;109141;1253;59110;-74
2024/01/19 07:35:42;;;;;;;26.90;15.30;;;;;;;-2.00;100.00;98566.93;109497;1253;59032;-74
2024/01/19 07:38:08;;;;;;;24.20;14.30;;;;;;;-1.97;100.00;98572.61;108706;1253;1002328;-74
2024/01/19 07:40:35;;;;;;;19.80;13.40;;;;;;;-1.94;100.00;98575.33;108489;1257;1002654;-75
2024/01/19 07:43:02;;;;;;;22.60;13.90;;;;;;;-1.90;100.00;98581.84;108725;1253;1002992;-74
2024/01/19 07:45:29;;;;;;;20.00;13.10;;;;;;;-1.88;100.00;98584.39;109469;1253;59244;-74
2024/01/19 07:47:56;;;;;;;23.30;14.20;;;;;;;-1.86;100.00;98583.67;108719;1253;1002643;-72
2024/01/19 07:50:22;;;;;;;21.60;14.10;;;;;;;-1.86;100.00;98580.19;108703;1253;1002690;-72
2024/01/19 07:52:49;;;;;;;24.60;14.10;;;;;;;-1.85;100.00;98582.06;109438;1255;60227;-72
2024/01/19 07:55:15;;;;;;;20.10;12.50;;;;;;;-1.81;100.00;98585.80;109490;1253;64012;-71
2024/01/19 07:57:42;;;;;;;25.00;15.80;;;;;;;-1.81;100.00;98587.71;109245;1255;59009;-71
2024/01/19 08:00:09;;;;;;;19.90;14.00;;;;;;;-1.77;100.00;98592.16;109452;1252;58878;-71
2024/01/19 08:02:36;;;;;;;21.70;14.90;;;;;;;-1.72;100.00;98590.98;109286;1253;67159;-72
2024/01/19 08:05:02;;;;;;;26.60;15.50;;;;;;;-1.66;100.00;98586.66;109285;1250;61072;-72
2024/01/19 08:07:29;;;;;;;19.70;13.80;;;;;;;-1.62;100.00;98588.13;109464;1251;63930;-72
2024/01/19 08:09:56;;;;;;;26.90;15.60;;;;;;;-1.59;100.00;98599.55;109416;1251;59006;-72
2024/01/19 08:12:22;;;;;;;25.30;14.10;;;;;;;-1.56;100.00;98607.48;109453;1251;59024;-72
2024/01/19 08:14:50;;;;;;;20.90;13.70;;;;;;;-1.53;100.00;98609.52;109441;1251;66936;-72
2024/01/19 08:17:16;;;;;;;24.20;14.50;;;;;;;-1.55;100.00;98616.53;109451;1256;61121;-72
2024/01/19 08:19:43;;;;;;;36.30;19.40;;;;;;;-1.55;100.00;98627.50;109413;1251;62763;-72
2024/01/19 08:22:12;;;;;;;32.30;16.20;;;;;;;-1.50;100.00;98636.44;109442;1251;58985;-72
2024/01/19 08:24:38;;;;;;;19.90;13.10;;;;;;;-1.41;100.00;98637.44;109479;1251;59152;-71
2024/01/19 08:27:05;;;;;;;18.60;13.40;;;;;;;-1.34;100.00;98642.67;109429;1251;67042;-72
2024/01/19 08:29:34;;;;;;;19.60;12.90;;;;;;;-1.26;100.00;98651.20;109484;1251;60035;-72
2024/01/19 08:32:01;;;;;;;18.10;12.80;;;;;;;-1.14;100.00;98656.48;109485;1251;65283;-72
2024/01/19 08:34:27;;;;;;;16.00;11.80;;;;;;;-1.02;100.00;98662.09;109406;1253;58949;-72
2024/01/19 08:36:54;;;;;;;17.10;11.80;;;;;;;-0.94;100.00;98671.65;109453;1251;58991;-72
2024/01/19 08:39:21;;;;;;;14.10;10.80;;;;;;;-0.89;100.00;98683.73;109478;1251;65961;-72
2024/01/19 08:41:47;;;;;;;16.90;11.00;;;;;;;-0.79;100.00;98683.48;109489;1251;61617;-72
2024/01/19 08:44:14;;;;;;;16.00;10.50;;;;;;;-0.64;100.00;98686.91;109495;1251;65279;-72
2024/01/19 08:46:43;;;;;;;15.70;11.50;;;;;;;-0.60;100.00;98697.63;109464;1251;59081;-72
2024/01/19 08:49:10;;;;;;;15.80;11.60;;;;;;;-0.60;100.00;98701.98;109488;1251;59305;-72
2024/01/19 08:51:38;;;;;;;16.40;12.50;;;;;;;-0.54;100.00;98712.13;109483;1251;67051;-72
2024/01/19 08:54:05;;;;;;;16.50;12.30;;;;;;;-0.47;100.00;98717.34;109493;1251;60115;-72
2024/01/19 08:56:33;;;;;;;16.80;11.80;;;;;;;-0.40;100.00;98723.61;109448;1251;65001;-72
2024/01/19 08:58:59;;;;;;;19.10;13.70;;;;;;;-0.34;100.00;98738.28;109475;1251;59380;-72
2024/01/19 09:01:26;;;;;;;19.10;12.70;;;;;;;-0.30;100.00;98740.27;109462;1251;58919;-72
2024/01/19 09:03:53;;;;;;;15.90;12.30;;;;;;;-0.30;100.00;98750.23;109478;1251;65029;-72
2024/01/19 09:06:19;;;;;;;17.30;11.50;;;;;;;-0.32;100.00;98757.97;109466;1251;68522;-72
2024/01/19 09:08:46;;;;;;;15.30;11.80;;;;;;;-0.36;100.00;98763.82;109400;1251;63789;-72
2024/01/19 09:11:13;;;;;;;17.70;11.10;;;;;;;-0.38;100.00;98763.71;109399;1251;58997;-72
2024/01/19 09:13:39;;;;;;;16.40;10.90;;;;;;;-0.40;100.00;98767.95;109471;1251;59015;-72
2024/01/19 09:16:07;;;;;;;16.10;11.10;;;;;;;-0.37;100.00;98773.12;109451;1251;67162;-72
2024/01/19 09:18:35;;;;;;;13.70;10.50;;;;;;;-0.31;100.00;98783.26;109488;1251;60082;-72
2024/01/19 09:21:02;;;;;;;16.20;11.20;;;;;;;-0.24;100.00;98786.02;109391;1251;64223;-72
2024/01/19 09:23:29;;;;;;;17.90;12.30;;;;;;;-0.14;100.00;98795.69;109445;1251;59287;-71
2024/01/19 09:25:56;;;;;;;14.10;11.00;;;;;;;-0.13;100.00;98801.44;108685;1256;1002858;-71
2024/01/19 09:28:22;;;;;;;15.70;11.00;;;;;;;-0.11;100.00;98807.15;109492;1251;66107;-72
2024/01/19 09:30:49;;;;;;;17.40;12.20;;;;;;;-0.10;100.00;98811.66;109458;1251;61172;-71
2024/01/19 09:33:16;;;;;;;18.20;12.90;;;;;;;-0.08;100.00;98818.23;109459;1251;65050;-75
2024/01/19 09:35:43;;;;;;;18.50;12.60;;;;;;;-0.06;100.00;98815.40;109422;1252;58965;-74
2024/01/19 09:38:09;;;;;;;16.90;12.60;;;;;;;-0.06;100.00;98816.98;109464;1251;59300;-74
2024/01/19 09:40:36;;;;;;;21.00;12.60;;;;;;;-0.04;100.00;98819.70;109459;1251;67940;-74
2024/01/19 09:43:03;;;;;;;17.40;12.40;;;;;;;-0.01;100.00;98819.45;109263;1251;60247;-75
2024/01/19 09:45:40;;;;;;;18.60;13.00;;;;;;;0.05;100.00;98815.98;109220;1251;65279;-75
2024/01/19 09:48:20;;;;;;;18.10;13.10;;;;;;;0.15;100.00;98808.36;109418;1251;59296;-76
2024/01/19 09:50:51;;;;;;;18.50;12.70;;;;;;;0.29;100.00;98809.91;109443;1251;59127;-76
2024/01/19 09:53:27;;;;;;;16.00;12.80;;;;;;;0.41;100.00;98807.79;109276;1251;66440;-74
2024/01/19 09:55:54;;;;;;;19.20;14.20;;;;;;;0.56;100.00;98804.39;109463;1251;61549;-75
2024/01/19 09:58:21;;;;;;;21.80;14.80;;;;;;;0.72;100.00;98806.02;109406;1251;65121;-74
2024/01/19 10:00:50;;;;;;;19.10;13.70;;;;;;;0.76;100.00;98812.88;109342;1251;119112;-74
2024/01/19 10:03:18;;;;;;;16.10;13.30;;;;;;;0.83;100.00;98812.68;109462;1251;59064;-75
2024/01/19 10:05:45;;;;;;;18.50;14.00;;;;;;;0.88;100.00;98819.00;109212;1252;75469;-74
2024/01/19 10:08:13;;;;;;;18.40;14.20;;;;;;;1.03;100.00;98813.63;109460;1254;60137;-75
2024/01/19 10:10:41;;;;;;;19.90;14.80;;;;;;;1.25;100.00;98814.33;109369;1253;64082;-75
2024/01/19 10:13:08;;;;;;;19.70;14.10;;;;;;;1.39;100.00;98817.92;109252;1252;59066;-75
2024/01/19 10:15:35;;;;;;;17.60;14.30;;;;;;;1.43;100.00;98820.92;109448;1252;58892;-74
2024/01/19 10:18:03;;;;;;;21.40;14.30;;;;;;;1.39;100.00;98822.13;108710;1253;1002161;-73
2024/01/19 10:20:31;;;;;;;21.20;15.00;;;;;;;1.30;100.00;98822.91;109266;1254;61505;-75
2024/01/19 10:23:18;;;;;;;19.60;16.00;;;;;;;1.27;100.00;98817.94;109419;1253;65119;-75
2024/01/19 10:25:45;;;;;;;18.90;14.30;;;;;;;1.33;100.00;98816.88;109389;1254;59736;-75
2024/01/19 10:28:28;;;;;;;23.40;17.00;;;;;;;1.40;100.00;98815.27;109435;1252;59055;-74
2024/01/19 10:31:13;;;;;;;19.50;15.20;;;;;;;1.45;100.00;98808.27;109150;1253;67044;-75
2024/01/19 10:33:51;;;;;;;21.20;16.20;;;;;;;1.40;100.00;98813.67;109483;1256;61122;-75
2024/01/19 10:36:18;;;;;;;21.60;15.10;;;;;;;1.38;100.00;98814.98;109271;1253;64012;-75
2024/01/19 10:38:45;;;;;;;19.40;15.50;;;;;;;1.33;100.00;98817.59;109263;1253;59226;-75
2024/01/19 10:41:16;;;;;;;22.00;17.30;;;;;;;1.26;100.00;98818.85;108658;1252;1002155;-74
2024/01/19 10:43:43;;;;;;;21.40;16.10;;;;;;;1.18;100.00;98819.45;109360;1253;66150;-75
2024/01/19 10:46:26;;;;;;;22.10;15.70;;;;;;;1.06;100.00;98820.55;109401;1252;61140;-75
2024/01/19 10:48:53;;;;;;;22.20;15.70;;;;;;;0.97;100.00;98817.86;109314;1252;65599;-75
2024/01/19 10:51:20;;;;;;;17.50;13.80;;;;;;;0.90;100.00;98817.55;109427;1252;59024;-75
2024/01/19 10:53:50;;;;;;;22.40;16.50;;;;;;;0.82;100.00;98820.57;109459;1254;59008;-75
2024/01/19 10:56:21;;;;;;;24.00;15.90;;;;;;;0.74;100.00;98824.84;109413;1253;67468;-75
2024/01/19 10:58:48;;;;;;;21.40;15.20;;;;;;;0.67;100.00;98830.64;109277;1253;60163;-75
2024/01/19 11:01:16;;;;;;;19.60;14.30;;;;;;;0.59;100.00;98843.80;105603;1253;1002951;-75
2024/01/19 11:03:43;;;;;;;21.60;14.40;;;;;;;0.51;100.00;98856.30;109420;1253;59014;-76